Time;durP1;ratioP1;P1;durP2;ratioP2;P2;SDS_P1;SDS_P2;PMS_P1;PMS_P2;Temp;Humidity;BMP_temperature;BMP_pressure;BME280_temperature;BME280_humidity;BME280_pressure;Samples;Min_cycle;Max_cycle;Signal;HPM_P1;HPM_P2
2023/06/08 00:02:23;;;;;;;14.93;8.27;;;;;;;;;;5094693;28;20197;-68
2023/06/08 00:04:49;;;;;;;13.90;8.07;;;;;;;;;;5075994;28;20214;-68
2023/06/08 00:07:18;;;;;;;14.77;7.83;;;;;;;;;;5094166;28;20172;-68
2023/06/08 00:09:44;;;;;;;13.00;8.17;;;;;;;;;;5094014;28;20576;-68
2023/06/08 00:12:10;;;;;;;11.80;8.20;;;;;;;;;;5094235;28;20230;-68
2023/06/08 00:14:36;;;;;;;16.40;8.30;;;;;;;;;;5093813;28;20177;-69
2023/06/08 00:17:03;;;;;;;13.97;8.93;;;;;;;;;;5093871;28;20194;-68
2023/06/08 00:19:30;;;;;;;20.07;8.53;;;;;;;;;;5075760;28;20554;-68
2023/06/08 00:21:56;;;;;;;15.63;8.47;;;;;;;;;;5075474;28;20352;-68
2023/06/08 00:24:22;;;;;;;18.30;8.90;;;;;;;;;;5094065;28;20173;-68
2023/06/08 00:26:48;;;;;;;17.53;9.47;;;;;;;;;;5075542;28;20184;-68
2023/06/08 00:29:14;;;;;;;13.83;8.37;;;;;;;;;;5115471;22;20276;-68
2023/06/08 00:31:40;;;;;;;18.07;9.00;;;;;;;;;;5076206;28;20177;-69
2023/06/08 00:34:06;;;;;;;12.53;8.90;;;;;;;;;;5094099;28;20188;-69
2023/06/08 00:36:32;;;;;;;17.00;8.90;;;;;;;;;;5094910;28;20205;-69
2023/06/08 00:38:58;;;;;;;18.13;9.83;;;;;;;;;;5093880;28;20182;-69
2023/06/08 00:41:25;;;;;;;14.47;8.30;;;;;;;;;;5093867;28;20205;-69
2023/06/08 00:43:51;;;;;;;16.60;9.07;;;;;;;;;;5075376;28;20239;-69
2023/06/08 00:46:18;;;;;;;18.53;9.67;;;;;;;;;;5094130;28;20563;-69
2023/06/08 00:48:44;;;;;;;17.47;9.13;;;;;;;;;;5075464;28;20674;-69
2023/06/08 00:51:12;;;;;;;19.93;8.50;;;;;;;;;;5093496;28;20614;-69
2023/06/08 00:53:38;;;;;;;17.37;9.27;;;;;;;;;;5075425;28;20195;-69
2023/06/08 00:56:04;;;;;;;15.43;9.27;;;;;;;;;;5093507;28;20188;-69
2023/06/08 00:58:30;;;;;;;16.53;9.10;;;;;;;;;;5093564;28;20181;-69
2023/06/08 01:00:59;;;;;;;19.03;9.23;;;;;;;;;;5093297;28;20208;-70
2023/06/08 01:03:33;;;;;;;17.97;9.00;;;;;;;;;;5093358;28;20180;-69
2023/06/08 01:06:00;;;;;;;18.63;9.30;;;;;;;;;;5093910;28;20168;-69
2023/06/08 01:08:47;;;;;;;16.67;8.20;;;;;;;;;;5075370;28;20669;-69
2023/06/08 01:11:27;;;;;;;18.10;8.70;;;;;;;;;;5086089;28;20307;-69
2023/06/08 01:14:15;;;;;;;13.53;8.50;;;;;;;;;;5075093;28;20165;-69
2023/06/08 01:16:44;;;;;;;23.37;10.73;;;;;;;;;;5093789;28;20153;-69
2023/06/08 01:19:11;;;;;;;16.50;9.47;;;;;;;;;;5075072;28;20203;-69
2023/06/08 01:21:56;;;;;;;17.10;9.80;;;;;;;;;;5074860;28;20204;-69
2023/06/08 01:24:24;;;;;;;17.67;9.73;;;;;;;;;;5093090;28;20165;-69
2023/06/08 01:26:51;;;;;;;23.40;11.67;;;;;;;;;;5074958;28;20188;-69
2023/06/08 01:29:18;;;;;;;24.37;12.67;;;;;;;;;;5093148;28;20216;-69
2023/06/08 01:31:44;;;;;;;27.00;13.37;;;;;;;;;;5093555;28;20172;-70
2023/06/08 01:34:12;;;;;;;21.43;13.23;;;;;;;;;;5097391;28;20208;-70
2023/06/08 01:36:49;;;;;;;25.87;13.97;;;;;;;;;;5097194;28;20173;-70
2023/06/08 01:39:23;;;;;;;30.10;13.60;;;;;;;;;;5097300;28;20626;-69
2023/06/08 01:41:53;;;;;;;22.73;12.67;;;;;;;;;;5079770;28;20292;-70
2023/06/08 01:44:21;;;;;;;20.53;12.10;;;;;;;;;;5098032;28;20613;-70
2023/06/08 01:46:51;;;;;;;21.43;11.37;;;;;;;;;;5097318;28;20173;-69
2023/06/08 01:49:17;;;;;;;17.40;11.60;;;;;;;;;;5078841;28;20228;-69
2023/06/08 01:51:43;;;;;;;18.80;10.53;;;;;;;;;;5079316;28;20177;-70
2023/06/08 01:54:09;;;;;;;16.10;10.80;;;;;;;;;;5102887;28;20206;-70
2023/06/08 01:56:36;;;;;;;17.47;10.70;;;;;;;;;;5085770;28;20271;-69
2023/06/08 01:59:02;;;;;;;12.83;10.40;;;;;;;;;;5100447;28;20169;-69
2023/06/08 02:01:28;;;;;;;18.50;10.70;;;;;;;;;;5079602;28;20208;-70
2023/06/08 02:03:54;;;;;;;19.63;10.93;;;;;;;;;;5097900;28;20211;-70
2023/06/08 02:06:20;;;;;;;17.90;9.37;;;;;;;;;;5080763;28;20548;-69
2023/06/08 02:08:46;;;;;;;21.33;10.13;;;;;;;;;;5098614;28;20176;-69
2023/06/08 02:11:12;;;;;;;22.73;9.43;;;;;;;;;;5098539;28;20280;-69
2023/06/08 02:13:42;;;;;;;20.07;9.03;;;;;;;;;;5078763;28;20177;-69
2023/06/08 02:16:08;;;;;;;15.07;9.33;;;;;;;;;;5096782;28;20188;-70
2023/06/08 02:18:35;;;;;;;15.07;8.93;;;;;;;;;;5096656;28;20184;-69
2023/06/08 02:21:04;;;;;;;18.37;9.23;;;;;;;;;;5096286;28;20209;-70
2023/06/08 02:23:30;;;;;;;14.37;9.07;;;;;;;;;;5078165;28;20711;-70
2023/06/08 02:25:56;;;;;;;14.97;8.97;;;;;;;;;;5078054;28;20267;-68
2023/06/08 02:28:22;;;;;;;14.03;9.13;;;;;;;;;;5096341;28;20184;-68
2023/06/08 02:30:48;;;;;;;13.97;9.60;;;;;;;;;;5096275;28;20335;-68
2023/06/08 02:33:14;;;;;;;14.87;8.87;;;;;;;;;;5077910;28;20177;-68
2023/06/08 02:35:40;;;;;;;14.37;8.73;;;;;;;;;;5096616;28;20177;-68
2023/06/08 02:38:06;;;;;;;18.47;9.00;;;;;;;;;;5077859;28;20180;-68
2023/06/08 02:40:32;;;;;;;13.43;9.57;;;;;;;;;;5095922;28;20200;-69
2023/06/08 02:42:59;;;;;;;14.73;8.53;;;;;;;;;;5095510;28;20547;-68
2023/06/08 02:45:26;;;;;;;13.07;8.77;;;;;;;;;;5076944;28;20244;-69
2023/06/08 02:47:52;;;;;;;15.67;9.13;;;;;;;;;;5095792;28;20257;-69
2023/06/08 02:50:18;;;;;;;16.60;8.67;;;;;;;;;;5096027;28;20190;-69
2023/06/08 02:52:44;;;;;;;17.93;8.73;;;;;;;;;;5095647;28;20662;-69
2023/06/08 02:55:10;;;;;;;18.30;9.20;;;;;;;;;;5095680;28;20753;-69
2023/06/08 02:57:38;;;;;;;13.10;9.00;;;;;;;;;;5077419;28;20224;-68
2023/06/08 03:00:07;;;;;;;14.83;8.50;;;;;;;;;;5077407;28;20240;-69
2023/06/08 03:02:33;;;;;;;12.00;8.73;;;;;;;;;;5077259;28;20201;-69
2023/06/08 03:05:02;;;;;;;16.43;9.57;;;;;;;;;;5077333;28;20572;-68
2023/06/08 03:07:28;;;;;;;15.57;8.70;;;;;;;;;;5095452;28;20199;-69
2023/06/08 03:09:54;;;;;;;15.13;9.10;;;;;;;;;;5077065;28;20698;-69
2023/06/08 03:12:20;;;;;;;16.53;8.77;;;;;;;;;;5095676;28;20693;-68
2023/06/08 03:14:48;;;;;;;16.57;8.70;;;;;;;;;;5077177;28;20185;-69
2023/06/08 03:17:16;;;;;;;15.67;8.80;;;;;;;;;;5077065;28;20185;-68
2023/06/08 03:19:42;;;;;;;14.07;8.97;;;;;;;;;;5077006;28;20288;-69
2023/06/08 03:22:08;;;;;;;18.93;9.00;;;;;;;;;;5076846;28;20296;-69
2023/06/08 03:24:34;;;;;;;15.83;9.17;;;;;;;;;;5094937;28;20177;-69
2023/06/08 03:27:01;;;;;;;16.07;9.33;;;;;;;;;;5095481;28;20173;-68
2023/06/08 03:29:27;;;;;;;15.30;9.33;;;;;;;;;;5094710;28;20209;-68
2023/06/08 03:31:53;;;;;;;13.50;8.83;;;;;;;;;;5094906;28;20211;-69
2023/06/08 03:34:20;;;;;;;14.43;9.53;;;;;;;;;;5095118;28;20546;-69
2023/06/08 03:36:46;;;;;;;15.33;9.30;;;;;;;;;;5094799;28;20170;-69
2023/06/08 03:39:12;;;;;;;18.93;8.97;;;;;;;;;;5095053;28;20585;-69
2023/06/08 03:41:39;;;;;;;22.27;9.10;;;;;;;;;;5076300;28;20197;-69
2023/06/08 03:44:05;;;;;;;16.83;8.93;;;;;;;;;;5076495;28;20177;-69
2023/06/08 03:46:31;;;;;;;13.43;9.10;;;;;;;;;;5076480;28;20651;-69
2023/06/08 03:48:57;;;;;;;13.53;8.67;;;;;;;;;;5094843;28;20188;-69
2023/06/08 03:51:23;;;;;;;17.70;8.83;;;;;;;;;;5094760;28;20180;-69
2023/06/08 03:53:50;;;;;;;13.20;8.73;;;;;;;;;;5076485;28;20183;-69
2023/06/08 03:56:16;;;;;;;17.80;10.07;;;;;;;;;;5076287;28;20238;-70
2023/06/08 03:58:42;;;;;;;13.80;8.60;;;;;;;;;;5094409;28;20205;-69
2023/06/08 04:01:11;;;;;;;17.20;9.30;;;;;;;;;;5076022;28;20678;-69
2023/06/08 04:03:38;;;;;;;17.37;9.37;;;;;;;;;;5076093;28;20177;-69
2023/06/08 04:06:05;;;;;;;14.87;8.97;;;;;;;;;;5076095;28;20210;-69
2023/06/08 04:08:32;;;;;;;16.63;9.67;;;;;;;;;;5094230;28;20169;-69
2023/06/08 04:11:01;;;;;;;16.17;10.00;;;;;;;;;;5094188;28;20314;-69
2023/06/08 04:13:27;;;;;;;19.23;10.20;;;;;;;;;;5075942;28;20188;-71
2023/06/08 04:15:53;;;;;;;16.63;9.27;;;;;;;;;;5094095;28;20169;-70
2023/06/08 04:18:19;;;;;;;16.90;9.63;;;;;;;;;;5075783;28;20235;-71
2023/06/08 04:20:45;;;;;;;17.73;9.63;;;;;;;;;;5075722;28;20241;-70
2023/06/08 04:23:11;;;;;;;19.80;9.53;;;;;;;;;;5093884;28;20213;-69
2023/06/08 04:25:37;;;;;;;18.23;10.37;;;;;;;;;;5075781;28;20177;-70
2023/06/08 04:28:04;;;;;;;19.13;9.93;;;;;;;;;;5075731;28;20181;-69
2023/06/08 04:30:30;;;;;;;16.13;9.77;;;;;;;;;;5093544;28;20220;-69
2023/06/08 04:32:57;;;;;;;18.53;10.10;;;;;;;;;;5094236;28;20181;-69
2023/06/08 04:35:23;;;;;;;17.13;10.17;;;;;;;;;;5085639;28;20551;-69
2023/06/08 04:37:49;;;;;;;17.20;10.80;;;;;;;;;;5104617;28;20252;-69
2023/06/08 04:40:16;;;;;;;15.63;9.97;;;;;;;;;;5098527;28;20189;-69
2023/06/08 04:42:44;;;;;;;16.03;10.00;;;;;;;;;;5077857;28;20288;-69
2023/06/08 04:45:11;;;;;;;18.10;10.40;;;;;;;;;;5077600;28;20610;-70
2023/06/08 04:47:37;;;;;;;17.63;9.97;;;;;;;;;;5095433;28;20542;-69
2023/06/08 04:50:05;;;;;;;15.40;9.97;;;;;;;;;;5076733;28;20222;-69
2023/06/08 04:52:40;;;;;;;21.50;11.53;;;;;;;;;;5076377;28;20181;-69
2023/06/08 04:55:07;;;;;;;18.57;10.07;;;;;;;;;;5094073;28;20163;-70
2023/06/08 04:57:33;;;;;;;16.53;9.47;;;;;;;;;;5093587;28;20177;-70
2023/06/08 04:59:59;;;;;;;15.23;9.23;;;;;;;;;;5093707;28;20574;-70
2023/06/08 05:02:25;;;;;;;15.23;9.17;;;;;;;;;;5093352;28;20189;-70
2023/06/08 05:04:51;;;;;;;15.03;9.43;;;;;;;;;;5093441;28;20550;-68
2023/06/08 05:07:17;;;;;;;15.87;9.73;;;;;;;;;;5093353;28;20169;-70
2023/06/08 05:09:43;;;;;;;19.10;9.73;;;;;;;;;;5093351;28;20690;-68
2023/06/08 05:12:10;;;;;;;13.40;9.87;;;;;;;;;;5075338;28;20235;-69
2023/06/08 05:14:36;;;;;;;15.27;10.30;;;;;;;;;;5075386;28;20258;-68
2023/06/08 05:17:02;;;;;;;16.67;10.03;;;;;;;;;;5093944;28;20627;-68
2023/06/08 05:19:28;;;;;;;14.73;9.63;;;;;;;;;;5093585;28;20250;-70
2023/06/08 05:21:54;;;;;;;15.07;9.13;;;;;;;;;;5075230;28;20781;-68
2023/06/08 05:24:20;;;;;;;16.13;10.53;;;;;;;;;;5093260;28;20544;-68
2023/06/08 05:26:46;;;;;;;16.90;9.90;;;;;;;;;;5093230;28;20239;-70
2023/06/08 05:29:12;;;;;;;20.20;10.73;;;;;;;;;;5074891;28;20291;-68
2023/06/08 05:31:39;;;;;;;15.87;10.17;;;;;;;;;;5093725;28;20166;-68
2023/06/08 05:34:05;;;;;;;17.80;10.40;;;;;;;;;;5075355;28;20272;-68
2023/06/08 05:36:31;;;;;;;15.90;9.97;;;;;;;;;;5093392;28;20196;-70
2023/06/08 05:39:02;;;;;;;17.50;10.13;;;;;;;;;;5075117;28;20181;-71
2023/06/08 05:41:28;;;;;;;14.80;10.83;;;;;;;;;;5093944;28;20189;-71
2023/06/08 05:43:54;;;;;;;18.27;11.07;;;;;;;;;;5075820;28;20188;-71
2023/06/08 05:46:20;;;;;;;18.97;11.03;;;;;;;;;;5093750;28;20700;-71
2023/06/08 05:48:46;;;;;;;18.03;11.47;;;;;;;;;;5075521;28;20534;-70
2023/06/08 05:51:12;;;;;;;16.83;10.73;;;;;;;;;;5075128;28;20207;-70
2023/06/08 05:53:39;;;;;;;15.67;11.37;;;;;;;;;;5075233;28;20639;-69
2023/06/08 05:56:05;;;;;;;16.87;10.67;;;;;;;;;;5075326;28;20173;-69
2023/06/08 05:58:31;;;;;;;19.47;11.17;;;;;;;;;;5093464;28;20177;-68
2023/06/08 06:00:59;;;;;;;16.57;10.27;;;;;;;;;;5074875;28;20223;-68
2023/06/08 06:03:25;;;;;;;20.47;10.60;;;;;;;;;;5074866;28;20177;-68
2023/06/08 06:05:51;;;;;;;15.73;10.30;;;;;;;;;;5092956;28;20173;-68
2023/06/08 06:08:17;;;;;;;14.27;10.03;;;;;;;;;;5074811;28;20647;-68
2023/06/08 06:10:43;;;;;;;17.27;10.47;;;;;;;;;;5093202;28;20200;-68
2023/06/08 06:13:09;;;;;;;17.10;10.60;;;;;;;;;;5092968;28;20181;-68
2023/06/08 06:15:35;;;;;;;15.17;10.23;;;;;;;;;;5093078;28;20346;-68
2023/06/08 06:18:01;;;;;;;20.20;11.50;;;;;;;;;;5076004;28;20181;-68
2023/06/08 06:20:29;;;;;;;15.20;10.73;;;;;;;;;;5078450;28;20197;-68
2023/06/08 06:22:55;;;;;;;14.47;10.23;;;;;;;;;;5096912;28;20295;-69
2023/06/08 06:25:21;;;;;;;20.57;11.63;;;;;;;;;;5079343;28;20177;-68
2023/06/08 06:27:47;;;;;;;19.27;11.33;;;;;;;;;;5096949;28;20714;-68
2023/06/08 06:30:14;;;;;;;15.30;10.87;;;;;;;;;;5096468;28;20272;-71
2023/06/08 06:32:40;;;;;;;15.30;10.23;;;;;;;;;;5096984;28;20223;-70
2023/06/08 06:35:06;;;;;;;16.07;10.97;;;;;;;;;;5096573;28;20182;-69
2023/06/08 06:37:35;;;;;;;15.53;10.33;;;;;;;;;;5078409;28;20185;-68
2023/06/08 06:40:04;;;;;;;14.87;11.47;;;;;;;;;;5097276;28;20204;-70
2023/06/08 06:42:30;;;;;;;17.70;11.13;;;;;;;;;;5090741;22;20252;-67
2023/06/08 06:44:57;;;;;;;14.43;10.60;;;;;;;;;;5096092;28;20757;-67
2023/06/08 06:47:23;;;;;;;16.10;10.27;;;;;;;;;;5096013;28;20196;-67
2023/06/08 06:49:49;;;;;;;21.07;10.97;;;;;;;;;;5096354;28;20623;-67
2023/06/08 06:52:15;;;;;;;16.70;10.83;;;;;;;;;;5077545;28;20722;-67
2023/06/08 06:54:41;;;;;;;18.53;10.73;;;;;;;;;;5095928;28;20627;-68
2023/06/08 06:57:07;;;;;;;16.90;11.50;;;;;;;;;;5095792;28;20256;-67
2023/06/08 06:59:33;;;;;;;14.97;10.87;;;;;;;;;;5095756;28;20177;-68
2023/06/08 07:01:59;;;;;;;13.30;10.97;;;;;;;;;;5097677;28;20209;-68
2023/06/08 07:04:25;;;;;;;12.03;10.33;;;;;;;;;;5096047;28;20177;-67
2023/06/08 07:06:52;;;;;;;20.60;11.20;;;;;;;;;;5077481;28;20235;-67
2023/06/08 07:09:21;;;;;;;19.40;11.23;;;;;;;;;;5077342;28;20201;-67
2023/06/08 07:11:47;;;;;;;17.57;11.43;;;;;;;;;;5095502;28;20701;-68
2023/06/08 07:14:13;;;;;;;18.90;10.87;;;;;;;;;;5077278;28;20233;-68
2023/06/08 07:16:39;;;;;;;22.13;11.53;;;;;;;;;;5077259;28;20177;-68
2023/06/08 07:19:05;;;;;;;15.87;10.97;;;;;;;;;;5095277;28;20180;-68
2023/06/08 07:21:31;;;;;;;17.53;10.93;;;;;;;;;;5077262;28;20209;-68
2023/06/08 07:23:57;;;;;;;17.33;9.83;;;;;;;;;;5095406;28;20177;-67
2023/06/08 07:26:24;;;;;;;16.37;10.27;;;;;;;;;;5095525;28;20627;-69
2023/06/08 07:28:54;;;;;;;14.87;10.33;;;;;;;;;;5079467;28;20528;-68
2023/06/08 07:31:20;;;;;;;16.23;10.47;;;;;;;;;;5097834;28;20222;-68
2023/06/08 07:33:46;;;;;;;18.03;11.07;;;;;;;;;;5079240;28;20284;-67
2023/06/08 07:36:13;;;;;;;14.80;9.97;;;;;;;;;;5096347;28;20673;-68
2023/06/08 07:38:39;;;;;;;14.70;10.73;;;;;;;;;;5096397;28;20551;-68
2023/06/08 07:41:05;;;;;;;14.93;10.80;;;;;;;;;;5094979;28;20181;-68
2023/06/08 07:43:31;;;;;;;16.70;10.30;;;;;;;;;;5076532;28;20255;-68
2023/06/08 07:45:58;;;;;;;16.80;10.13;;;;;;;;;;5095049;28;20207;-68
2023/06/08 07:48:24;;;;;;;16.87;11.37;;;;;;;;;;5095766;28;20256;-68
2023/06/08 07:50:50;;;;;;;16.10;10.77;;;;;;;;;;5077115;28;20552;-67
2023/06/08 07:53:18;;;;;;;18.30;11.00;;;;;;;;;;5095269;28;20201;-67
2023/06/08 07:55:44;;;;;;;20.87;10.70;;;;;;;;;;5094635;28;20185;-67
2023/06/08 07:58:10;;;;;;;12.67;10.13;;;;;;;;;;5094500;28;20207;-68
2023/06/08 08:00:36;;;;;;;16.87;10.60;;;;;;;;;;5095055;28;20216;-67
2023/06/08 08:03:03;;;;;;;13.80;9.93;;;;;;;;;;5094995;28;20236;-68
2023/06/08 08:05:30;;;;;;;19.73;11.07;;;;;;;;;;5094524;28;20165;-68
2023/06/08 08:07:56;;;;;;;16.17;11.47;;;;;;;;;;5094755;28;20264;-67
2023/06/08 08:10:22;;;;;;;17.03;10.83;;;;;;;;;;5076908;28;20681;-67
2023/06/08 08:12:48;;;;;;;17.33;11.30;;;;;;;;;;5076924;28;20243;-68
2023/06/08 08:15:14;;;;;;;15.93;11.03;;;;;;;;;;5094948;28;20181;-68
2023/06/08 08:17:40;;;;;;;19.37;11.87;;;;;;;;;;5076207;28;20185;-67
2023/06/08 08:20:07;;;;;;;18.90;11.00;;;;;;;;;;5094475;28;20260;-67
2023/06/08 08:22:33;;;;;;;19.33;10.73;;;;;;;;;;5094388;28;20205;-68
2023/06/08 08:25:00;;;;;;;17.87;11.13;;;;;;;;;;5094207;28;20534;-67
2023/06/08 08:27:26;;;;;;;14.43;10.33;;;;;;;;;;5093968;28;20181;-69
2023/06/08 08:29:52;;;;;;;20.37;12.27;;;;;;;;;;5094621;28;20691;-67
2023/06/08 08:32:17;;;;;;;23.23;11.00;;;;;;;;;;5075827;28;20643;-68
2023/06/08 08:34:43;;;;;;;16.40;10.63;;;;;;;;;;5075926;28;20182;-68
2023/06/08 08:37:10;;;;;;;15.53;10.47;;;;;;;;;;5093910;28;20189;-68
2023/06/08 08:39:36;;;;;;;15.63;10.60;;;;;;;;;;5094217;28;20185;-68
2023/06/08 08:42:03;;;;;;;17.50;10.20;;;;;;;;;;5092723;28;20217;-68
2023/06/08 08:44:30;;;;;;;22.93;11.10;;;;;;;;;;5094226;28;20193;-68
2023/06/08 08:47:02;;;;;;;17.10;11.07;;;;;;;;;;5075512;28;20181;-68
2023/06/08 08:49:30;;;;;;;16.30;11.13;;;;;;;;;;5093686;28;20311;-68
2023/06/08 08:51:56;;;;;;;13.90;10.47;;;;;;;;;;5075353;28;20593;-69
2023/06/08 08:54:30;;;;;;;17.80;11.33;;;;;;;;;;5075324;28;20191;-69
2023/06/08 08:56:57;;;;;;;15.23;11.23;;;;;;;;;;5093823;28;20167;-69
2023/06/08 08:59:23;;;;;;;21.17;11.83;;;;;;;;;;5093681;28;20173;-68
2023/06/08 09:01:49;;;;;;;17.30;11.07;;;;;;;;;;5093362;28;20265;-68
2023/06/08 09:04:15;;;;;;;17.00;11.30;;;;;;;;;;5093328;28;20181;-69
2023/06/08 09:06:46;;;;;;;20.00;10.97;;;;;;;;;;5075003;28;20181;-69
2023/06/08 09:09:12;;;;;;;16.53;10.10;;;;;;;;;;5093474;28;20264;-68
2023/06/08 09:11:58;;;;;;;16.40;10.17;;;;;;;;;;5075107;28;20702;-69
2023/06/08 09:14:24;;;;;;;14.53;10.50;;;;;;;;;;5075291;28;20185;-69
2023/06/08 09:16:51;;;;;;;13.23;9.83;;;;;;;;;;5093295;28;20181;-68
2023/06/08 09:19:17;;;;;;;17.03;10.40;;;;;;;;;;5092995;28;20599;-68
2023/06/08 09:21:44;;;;;;;19.83;11.13;;;;;;;;;;5092973;28;20193;-69
2023/06/08 09:24:11;;;;;;;12.57;8.77;;;;;;;;;;5093069;28;20202;-69
2023/06/08 09:26:38;;;;;;;20.20;9.50;;;;;;;;;;5093283;28;20174;-69
2023/06/08 09:29:04;;;;;;;14.50;9.67;;;;;;;;;;5093245;28;20307;-68
2023/06/08 09:31:31;;;;;;;11.57;9.63;;;;;;;;;;5092858;28;20177;-68
2023/06/08 09:34:11;;;;;;;15.57;9.50;;;;;;;;;;5074881;28;20561;-68
2023/06/08 09:36:38;;;;;;;13.65;10.15;;;;;;;;;;5091806;28;20508;-68
2023/06/08 09:39:07;;;;;;;14.03;10.00;;;;;;;;;;5074829;28;20588;-69
2023/06/08 09:41:34;;;;;;;13.47;8.57;;;;;;;;;;5074672;28;20193;-68
2023/06/08 09:44:00;;;;;;;14.83;9.20;;;;;;;;;;5074567;28;20269;-68
2023/06/08 09:46:33;;;;;;;13.90;8.80;;;;;;;;;;5093070;28;20643;-69
2023/06/08 09:48:59;;;;;;;10.97;8.70;;;;;;;;;;5092860;28;20178;-68
2023/06/08 09:51:25;;;;;;;14.27;9.03;;;;;;;;;;5092737;28;20184;-68
2023/06/08 09:53:55;;;;;;;11.73;9.67;;;;;;;;;;5095078;28;20177;-68
2023/06/08 09:56:26;;;;;;;15.73;9.37;;;;;;;;;;5096575;28;20230;-68
2023/06/08 09:58:56;;;;;;;15.67;9.70;;;;;;;;;;5078403;28;20177;-68
2023/06/08 10:01:27;;;;;;;13.77;9.53;;;;;;;;;;5096465;28;20189;-68
2023/06/08 10:03:57;;;;;;;15.10;9.10;;;;;;;;;;5096742;28;20157;-68
2023/06/08 10:06:25;;;;;;;11.13;8.27;;;;;;;;;;5096927;28;20157;-69
2023/06/08 10:08:52;;;;;;;14.53;8.67;;;;;;;;;;5096660;28;20170;-68
2023/06/08 10:11:18;;;;;;;12.60;8.40;;;;;;;;;;5096286;28;20631;-67
2023/06/08 10:13:44;;;;;;;13.33;8.90;;;;;;;;;;5078111;28;20204;-67
2023/06/08 10:16:10;;;;;;;16.87;9.30;;;;;;;;;;5096390;28;20181;-67
2023/06/08 10:18:37;;;;;;;12.93;9.83;;;;;;;;;;5078371;28;20652;-68
2023/06/08 10:21:05;;;;;;;13.50;9.50;;;;;;;;;;5078117;28;20178;-68
2023/06/08 10:23:31;;;;;;;16.30;10.80;;;;;;;;;;5077337;28;20937;-69
2023/06/08 10:25:57;;;;;;;14.70;10.17;;;;;;;;;;5078158;28;20177;-67
2023/06/08 10:28:24;;;;;;;12.03;9.03;;;;;;;;;;5077994;28;20306;-68
2023/06/08 10:30:50;;;;;;;12.60;9.63;;;;;;;;;;5077843;28;20709;-67
2023/06/08 10:33:19;;;;;;;14.48;9.88;;;;;;;;;;5094779;28;20378;-69
2023/06/08 10:36:05;;;;;;;13.43;10.07;;;;;;;;;;5094742;28;20411;-69
2023/06/08 10:38:32;;;;;;;14.93;10.52;;;;;;;;;;5094868;28;20378;-69
2023/06/08 10:40:58;;;;;;;11.27;9.83;;;;;;;;;;5077615;28;20180;-69
2023/06/08 10:43:27;;;;;;;10.67;8.63;;;;;;;;;;5077275;28;20304;-67
2023/06/08 10:45:54;;;;;;;13.60;8.93;;;;;;;;;;5095655;28;20173;-68
2023/06/08 10:48:20;;;;;;;12.23;8.97;;;;;;;;;;5095639;28;20183;-67
2023/06/08 10:50:47;;;;;;;11.90;8.80;;;;;;;;;;5095502;28;20264;-68
2023/06/08 10:53:16;;;;;;;12.03;9.50;;;;;;;;;;5077553;28;20201;-67
2023/06/08 10:55:46;;;;;;;12.73;9.40;;;;;;;;;;5094818;28;20382;-69
2023/06/08 10:58:19;;;;;;;11.33;8.90;;;;;;;;;;5095678;28;20235;-69
2023/06/08 11:00:46;;;;;;;;;;;;;;;;;;5095812;28;20050;-69
2023/06/08 11:03:12;;;;;;;;;;;;;;;;;;5077485;28;19914;-69
2023/06/08 11:05:37;;;;;;;;;;;;;;;;;;5076582;28;19987;-69
2023/06/08 11:08:04;;;;;;;;;;;;;;;;;;5095769;28;19957;-69
2023/06/08 11:10:32;;;;;;;;;;;;;;;;;;5095667;28;20298;-69
2023/06/08 11:12:57;;;;;;;;;;;;;;;;;;5077420;28;19904;-69
2023/06/08 11:15:23;;;;;;;;;;;;;;;;;;5095757;28;19904;-69
2023/06/08 11:17:50;;;;;;;;;;;;;;;;;;5095968;28;19904;-69
2023/06/08 11:20:17;;;;;;;;;;;;;;;;;;5077290;28;19919;-70
2023/06/08 11:22:42;;;;;;;;;;;;;;;;;;5095357;28;19908;-69
2023/06/08 11:25:08;;;;;;;;;;;;;;;;;;5095463;28;20285;-68
2023/06/08 11:27:34;;;;;;;;;;;;;;;;;;5095460;28;19904;-70
2023/06/08 11:30:00;;;;;;;;;;;;;;;;;;5095332;28;19904;-69
2023/06/08 11:32:26;;;;;;;;;;;;;;;;;;5076953;28;19917;-68
2023/06/08 11:34:53;;;;;;;;;;;;;;;;;;5077041;28;20290;-69
2023/06/08 11:37:18;;;;;;;;;;;;;;;;;;5095150;28;20413;-69
2023/06/08 11:39:44;;;;;;;;;;;;;;;;;;5095012;28;19942;-68
2023/06/08 11:42:10;;;;;;;13.80;9.30;;;;;;;;;;5093434;28;20402;-69
2023/06/08 11:44:36;;;;;;;12.27;9.37;;;;;;;;;;5094524;28;20177;-69
2023/06/08 11:47:03;;;;;;;11.20;8.33;;;;;;;;;;5094359;28;20198;-69
2023/06/08 11:49:49;;;;;;;12.93;9.93;;;;;;;;;;5094731;28;20208;-69
2023/06/08 11:52:15;;;;;;;9.47;8.10;;;;;;;;;;5094728;28;20197;-69
2023/06/08 11:54:41;;;;;;;11.43;8.57;;;;;;;;;;5076290;28;20604;-69
2023/06/08 11:57:08;;;;;;;9.67;8.33;;;;;;;;;;5076194;28;20177;-69
2023/06/08 11:59:36;;;;;;;9.43;7.73;;;;;;;;;;5094293;28;20177;-69
2023/06/08 12:02:06;;;;;;;17.43;8.33;;;;;;;;;;5075886;28;20659;-67
2023/06/08 12:04:36;;;;;;;10.03;8.27;;;;;;;;;;5094505;28;20161;-68
2023/06/08 12:07:12;;;;;;;15.90;8.30;;;;;;;;;;5094355;28;20547;-69
2023/06/08 12:09:38;;;;;;;12.37;8.63;;;;;;;;;;5075896;28;20177;-69
2023/06/08 12:12:09;;;;;;;10.43;8.30;;;;;;;;;;5094107;28;20200;-68
2023/06/08 12:14:45;;;;;;;9.47;8.20;;;;;;;;;;5094288;28;20657;-69
2023/06/08 12:17:14;;;;;;;10.10;8.33;;;;;;;;;;5075647;28;20177;-68
2023/06/08 12:19:45;;;;;;;10.73;8.80;;;;;;;;;;5093853;28;20264;-69
2023/06/08 12:22:11;;;;;;;12.60;8.43;;;;;;;;;;5075494;28;20290;-68
2023/06/08 12:24:37;;;;;;;14.47;8.10;;;;;;;;;;5093779;28;20253;-69
2023/06/08 12:27:06;;;;;;;10.03;8.00;;;;;;;;;;5093983;28;20196;-69
2023/06/08 12:29:32;;;;;;;10.57;7.70;;;;;;;;;;5094315;28;20166;-68
2023/06/08 12:31:59;;;;;;;8.90;7.50;;;;;;;;;;5075599;28;20616;-69
2023/06/08 12:34:25;;;;;;;8.07;6.97;;;;;;;;;;5094834;28;20542;-68
2023/06/08 12:36:51;;;;;;;8.60;7.63;;;;;;;;;;5097298;28;20169;-69
2023/06/08 12:39:17;;;;;;;7.73;7.03;;;;;;;;;;5077544;28;20185;-68
2023/06/08 12:41:43;;;;;;;12.97;7.33;;;;;;;;;;5075641;28;20200;-68
2023/06/08 12:44:10;;;;;;;10.77;8.23;;;;;;;;;;5075983;28;20184;-68
2023/06/08 12:46:36;;;;;;;9.37;7.97;;;;;;;;;;5094789;28;20198;-69
2023/06/08 12:49:02;;;;;;;8.97;7.80;;;;;;;;;;5094787;28;20176;-69
2023/06/08 12:51:28;;;;;;;10.43;7.50;;;;;;;;;;5093319;28;20177;-70
2023/06/08 12:53:54;;;;;;;7.23;6.53;;;;;;;;;;5093562;28;20668;-69
2023/06/08 12:56:21;;;;;;;11.27;8.03;;;;;;;;;;5093995;28;20173;-69
2023/06/08 12:58:47;;;;;;;8.80;7.60;;;;;;;;;;5075167;28;20187;-69
2023/06/08 13:01:13;;;;;;;7.87;7.13;;;;;;;;;;5093105;28;20260;-69
2023/06/08 13:03:39;;;;;;;8.13;7.23;;;;;;;;;;5075075;28;20196;-69
2023/06/08 13:06:05;;;;;;;10.17;8.03;;;;;;;;;;5075179;28;20182;-69
2023/06/08 13:08:31;;;;;;;14.40;7.87;;;;;;;;;;5093156;28;20197;-69
2023/06/08 13:10:58;;;;;;;9.90;7.70;;;;;;;;;;5093071;28;20204;-69
2023/06/08 13:13:25;;;;;;;9.33;7.50;;;;;;;;;;5093042;28;20193;-69
2023/06/08 13:15:53;;;;;;;8.60;7.40;;;;;;;;;;5093043;28;20644;-69
2023/06/08 13:18:20;;;;;;;8.57;7.70;;;;;;;;;;5075007;28;20213;-69
2023/06/08 13:20:47;;;;;;;12.80;7.50;;;;;;;;;;5093006;28;20237;-69
2023/06/08 13:23:13;;;;;;;10.57;7.20;;;;;;;;;;5074727;28;20690;-69
2023/06/08 13:25:39;;;;;;;9.93;7.90;;;;;;;;;;5092987;28;20177;-69
2023/06/08 13:28:07;;;;;;;9.10;8.07;;;;;;;;;;5093918;28;20707;-69
2023/06/08 13:30:33;;;;;;;9.27;8.10;;;;;;;;;;5078929;28;20560;-69
2023/06/08 13:33:02;;;;;;;8.57;7.23;;;;;;;;;;5078843;28;20196;-69
2023/06/08 13:35:28;;;;;;;9.37;7.50;;;;;;;;;;5097027;28;20324;-69
2023/06/08 13:37:55;;;;;;;9.60;7.70;;;;;;;;;;5096881;28;20708;-69
2023/06/08 13:40:21;;;;;;;7.83;7.13;;;;;;;;;;5096968;28;20197;-69
2023/06/08 13:42:47;;;;;;;8.73;7.83;;;;;;;;;;5078462;28;20220;-70
2023/06/08 13:45:13;;;;;;;8.37;7.40;;;;;;;;;;5078838;28;20272;-69
2023/06/08 13:47:40;;;;;;;8.47;7.57;;;;;;;;;;5096693;28;20208;-69
2023/06/08 13:50:07;;;;;;;8.20;7.20;;;;;;;;;;5078570;28;20639;-69
2023/06/08 13:52:33;;;;;;;8.03;7.23;;;;;;;;;;5078470;28;20201;-69
2023/06/08 13:54:59;;;;;;;8.70;7.60;;;;;;;;;;5096607;28;20635;-69
2023/06/08 13:57:25;;;;;;;8.53;7.63;;;;;;;;;;5096550;28;20181;-68
2023/06/08 13:59:52;;;;;;;9.37;8.07;;;;;;;;;;5097023;28;20230;-69
2023/06/08 14:02:18;;;;;;;11.80;7.97;;;;;;;;;;5078127;28;20219;-69
2023/06/08 14:04:44;;;;;;;8.33;7.10;;;;;;;;;;5078158;28;20637;-69
2023/06/08 14:07:10;;;;;;;9.23;7.93;;;;;;;;;;5096466;28;20173;-68
2023/06/08 14:09:36;;;;;;;7.70;6.90;;;;;;;;;;5096653;28;20239;-69
2023/06/08 14:12:02;;;;;;;;;;;;;;;;;;5078553;28;20458;-69
2023/06/08 14:14:28;;;;;;;;;;;;;;;;;;5096802;28;19999;-67
2023/06/08 14:16:54;;;;;;;;;;;;;;;;;;5096999;28;19958;-69
2023/06/08 14:19:20;;;;;;;7.63;6.93;;;;;;;;;;5096301;28;20529;-69
2023/06/08 14:21:46;;;;;;;8.55;7.38;;;;;;;;;;5096060;28;20245;-69
2023/06/08 14:24:11;;;;;;;;;;;;;;;;;;5078484;28;20017;-69
2023/06/08 14:26:37;;;;;;;8.07;7.38;;;;;;;;;;5078826;28;20241;-68
2023/06/08 14:29:03;;;;;;;8.23;7.43;;;;;;;;;;5096218;28;20276;-68
2023/06/08 14:31:29;;;;;;;8.23;7.50;;;;;;;;;;5099125;22;20255;-68
2023/06/08 14:33:56;;;;;;;8.00;7.30;;;;;;;;;;5096048;28;20198;-67